Belle Chasse, Louisiana
Current Conditions -  °F | °C
As of 9:55 PM on Saturday 22 Nov 2014 (Local Time) from KNBG Reporting Station
Overcast Overcast  
Wind Chill: 66°   Ceiling: 1000
Heat Index: 66°   Visibility: 10mi
Dew Point: 61°   Wind: 13mph
Humidity: 84%   Direction: 80°E
Pressure: 29.92"   Gusts: 24mph
Location:  29.85°N, 89.99°W
Report Text: KNBG 230355Z 08011G21KT 10SM BKN010 OVC017 19/16 A2992 RMK AO2 CIG 009V014 SLP132 T01890161 $
Loading
Personal Weather Stations






























Interactive Weather Map New forecast layout! Learn more

10-Day Weather Forecast

Advertisements
Track Severe Weather on mobile